Hereford, AZ (85615)

11:23 PM MST on January 30, 2015 (GMT -0700)
Three Canyons Ranch | Change Station
CLOSE
Current Station
Personal Weather Station
Location: Hereford, AZ
Elevation: 4551 ft
Nearby Weather Stations
Active Advisory: Areal Flood Warning

Elev 4551 ft 31.40 °N, 110.19 °W | Updated 14 seconds ago

Rain
Rain
46.6 °F
Feels Like 47 °F
N
0.0
Wind Variable Wind from SSE
Gusts 7.0 mph

Today
High -- | Low -- °F
--% Chance of Precip.
Yesterday
High -- | Low -- °F
Precip. -- in
7:14 AM 5:53 PM
Waxing Gibbous, 87% visible
Pressure 29.87 in
Visibility 10.0 miles
Clouds Few 700 ft
Overcast 2700 ft
Windchill 47 °F
Dew Point 46 °F
Humidity 96%
Rainfall 1.69 in
Snow Depth Not available.
UV 0 out of 12
Pollen .50 out of 12
Air Quality Not available.
Flu Activity Not available.
METAR KFHU 310555Z 12004KT 10SM FEW007 OVC027 08/07 A2992 RMK SLP113 60022 54000

More Conditions Fewer Conditions

Pressure 29.87 in
Visibility 10.0 miles
Clouds Few 700 ft
Overcast 2700 ft
Windchill 47 °F
Dew Point 46 °F
Humidity 96%
Rainfall 1.69 in
Snow Depth Not available.
UV 0 out of 12
Pollen .50 out of 12
Air Quality Not available.
Flu Activity Not available.
METAR KFHU 310555Z 12004KT 10SM FEW007 OVC027 08/07 A2992 RMK SLP113 60022 54000

More Conditions Fewer Conditions

Nowcast | as of 11:08 PM MST on January 30, 2015

Isolated to scattered showers continue across much of Southeast Arizona...with the showers more numerous in coverage over Cochise...Graham and Greenlee counties. Expect rainfall rates of one-tenth to one-third of an inch per hour in most instances... with up to one-half of an inch per hour in the heavier showers. Movement of the showers was to the northeast at 15-20 mph. Snow levels are currently between 7500 and 8000 feet...and are expected to slowly lower through the night.

×

10-Day Weather Forecast

Almanac

Astronomy

Jan. 30, 2015 Rise Set
Actual Time
Civil Twilight
Nautical Twilight
Astronomical Twilight
Moon
Length of Visible Light
Length of Day
Tomorrow will be .
, % of the Moon is Illuminated

Today's Extremes

State Highs State Lows

Community

WunderPhotos

Upload Photos

1,792,013 photos uploaded!

WunderBlogs® & News

Nearby

Air Quality

  Air Quality AQ Index Pollutant
Not available.

Snow Depth

Station Depth Elevation

Earthquake Activity

City Distance Mag. Time & Date
Minimum magnitude displayed is 2.5.

Coastal Water Temperatures

Place Temperature

Nearby Weather Stations